Terminal Aerodrome Forecast
Issued by NWS Louisville, KY

Home | Current Version | Previous Version | Text Only | Print | Product List | Glossary On
Versions: 1 2 3 4 5 6 7 8 9 10 11 12 13 14 15 16 17
000
FTUS43 KLMK 191100
TAFLEX
TAF
KLEX 191120Z 1912/2012 30005KT 4SM BR FEW008
     FM191400 33007KT P6SM BKN015
     FM191600 31010G15KT P6SM SCT250
     FM200100 35005KT P6SM SKC=

USA.gov is the U.S. government's official web portal to all federal, state and local government web resources and services.